createdAt,value
2016-07-05T00:00:00.829Z,14.24
2016-07-05T00:01:00.827Z,14.21
2016-07-05T00:02:01.252Z,14.2
2016-07-05T00:03:00.826Z,14.2
2016-07-05T00:04:00.819Z,14.2
2016-07-05T00:05:00.820Z,14.21
2016-07-05T00:06:01.444Z,14.21
2016-07-05T00:07:01.316Z,14.32
2016-07-05T00:08:01.038Z,14.29
2016-07-05T00:09:01.553Z,14.27
2016-07-05T00:10:01.672Z,14.29
2016-07-05T00:11:01.256Z,14.24
2016-07-05T00:12:00.806Z,14.37
2016-07-05T00:13:00.795Z,14.45
2016-07-05T00:14:00.797Z,14.43
2016-07-05T00:15:00.791Z,14.45
2016-07-05T00:16:00.793Z,14.54
2016-07-05T00:17:00.789Z,14.52
2016-07-05T00:18:00.791Z,14.51
2016-07-05T00:19:00.780Z,14.65
2016-07-05T00:20:00.788Z,14.65
2016-07-05T00:21:00.783Z,14.64
2016-07-05T00:22:00.767Z,14.69
2016-07-05T00:23:00.772Z,14.61
2016-07-05T00:24:00.773Z,14.7
2016-07-05T00:25:00.768Z,14.81
2016-07-05T00:26:00.763Z,14.7
2016-07-05T00:27:00.751Z,14.8
2016-07-05T00:28:00.757Z,14.7
2016-07-05T00:29:00.741Z,14.73
2016-07-05T00:30:00.736Z,14.73
2016-07-05T00:31:00.752Z,14.64
2016-07-05T00:32:00.751Z,14.6
2016-07-05T00:33:00.752Z,14.68
2016-07-05T00:34:00.743Z,14.64
2016-07-05T00:35:00.746Z,14.58
2016-07-05T00:36:00.743Z,14.64
2016-07-05T00:37:00.741Z,14.54
2016-07-05T00:38:00.740Z,14.52
2016-07-05T00:39:00.735Z,14.43
2016-07-05T00:40:00.730Z,14.47
2016-07-05T00:41:00.726Z,14.35
2016-07-05T00:42:00.729Z,14.35
2016-07-05T00:43:00.710Z,14.27
2016-07-05T00:44:00.711Z,14.22
2016-07-05T00:45:00.718Z,14.27
2016-07-05T00:46:00.719Z,14.25
2016-07-05T00:47:01.865Z,14.15
2016-07-05T00:48:00.756Z,14.2
2016-07-05T00:49:00.888Z,14.15
2016-07-05T00:50:01.246Z,14.07
2016-07-05T00:51:01.820Z,14.07
2016-07-05T00:52:01.106Z,14.06
2016-07-05T00:53:00.696Z,13.96
2016-07-05T00:54:00.678Z,13.88
2016-07-05T00:55:00.672Z,13.84
2016-07-05T00:56:00.691Z,13.84
2016-07-05T00:57:01.890Z,13.71
2016-07-05T00:58:01.534Z,13.7
2016-07-05T00:59:00.682Z,13.71
2016-07-05T01:00:01.184Z,13.66
2016-07-05T01:01:01.424Z,13.6
2016-07-05T01:02:00.662Z,13.54
2016-07-05T01:03:00.667Z,13.59
2016-07-05T01:04:00.648Z,13.55
2016-07-05T01:05:00.649Z,13.55
2016-07-05T01:06:01.241Z,13.51
2016-07-05T01:07:00.642Z,13.38
2016-07-05T01:08:00.647Z,13.36
2016-07-05T01:09:00.632Z,13.39
2016-07-05T01:10:00.630Z,13.39
2016-07-05T01:11:00.633Z,13.3
2016-07-05T01:12:00.634Z,13.32
2016-07-05T01:13:00.792Z,13.23
2016-07-05T01:14:00.629Z,13.23
2016-07-05T01:15:02.112Z,13.2
2016-07-05T01:16:01.741Z,13.15
2016-07-05T01:17:01.320Z,13.14
2016-07-05T01:18:00.622Z,13.11
2016-07-05T01:19:00.757Z,13.08
2016-07-05T01:20:00.607Z,13.07
2016-07-05T01:21:00.608Z,13.12
2016-07-05T01:22:00.607Z,13.11
2016-07-05T01:23:00.603Z,13.07
2016-07-05T01:24:02.091Z,13.03
2016-07-05T01:25:01.726Z,13
2016-07-05T01:26:01.196Z,13.01
2016-07-05T01:27:00.634Z,13.08
2016-07-05T01:28:00.582Z,13.01
2016-07-05T01:29:00.583Z,13.04
2016-07-05T01:30:00.583Z,13.01
2016-07-05T01:31:00.574Z,13.05
2016-07-05T01:32:00.561Z,13.01
2016-07-05T01:33:00.553Z,13
2016-07-05T01:34:00.553Z,12.95
2016-07-05T01:35:00.549Z,13.01
2016-07-05T01:36:00.542Z,13.01
2016-07-05T01:37:00.553Z,13.03
2016-07-05T01:38:00.553Z,12.96
2016-07-05T01:39:00.542Z,12.97
2016-07-05T01:40:00.543Z,12.96
2016-07-05T01:41:00.523Z,13.03
2016-07-05T01:42:00.543Z,12.97
2016-07-05T01:43:00.533Z,12.83
2016-07-05T01:44:00.526Z,12.96
2016-07-05T01:45:00.519Z,12.86
2016-07-05T01:46:00.523Z,12.87
2016-07-05T01:47:00.521Z,12.82
2016-07-05T01:48:00.509Z,12.87
2016-07-05T01:49:00.509Z,12.79
2016-07-05T01:50:00.518Z,12.78
2016-07-05T01:51:00.503Z,12.72
2016-07-05T01:52:00.495Z,12.74
2016-07-05T01:53:00.494Z,12.79
2016-07-05T01:54:00.492Z,12.74
2016-07-05T01:55:00.494Z,12.75
2016-07-05T01:56:00.481Z,12.74
2016-07-05T01:57:00.485Z,12.75
2016-07-05T01:58:00.472Z,12.82
2016-07-05T01:59:00.468Z,12.75
2016-07-05T02:00:00.768Z,12.77
2016-07-05T02:01:00.658Z,12.75
2016-07-05T02:02:00.762Z,12.74
2016-07-05T02:03:00.578Z,12.74
2016-07-05T02:04:00.631Z,12.82
2016-07-05T02:05:00.695Z,12.72
2016-07-05T02:06:01.189Z,12.75
2016-07-05T02:07:01.265Z,12.87
2016-07-05T02:08:00.568Z,12.85
2016-07-05T02:09:02.340Z,12.96
2016-07-05T02:10:00.432Z,13.01
2016-07-05T02:11:00.432Z,13.01
2016-07-05T02:12:00.419Z,13.07
2016-07-05T02:13:00.421Z,13.1
2016-07-05T02:14:00.420Z,13.11
2016-07-05T02:15:16.199Z,13.17
2016-07-05T02:16:00.656Z,13.12
2016-07-05T02:17:01.701Z,13.15
2016-07-05T02:18:01.053Z,13.2
2016-07-05T02:19:00.401Z,13.23
2016-07-05T02:20:00.397Z,13.23
2016-07-05T02:21:00.394Z,13.29
2016-07-05T02:22:00.386Z,13.36
2016-07-05T02:23:00.392Z,13.38
2016-07-05T02:24:00.389Z,13.41
2016-07-05T02:25:00.379Z,13.41
2016-07-05T02:26:00.372Z,13.52
2016-07-05T02:27:00.374Z,13.52
2016-07-05T02:28:00.354Z,13.57
2016-07-05T02:29:00.359Z,13.62
2016-07-05T02:30:00.351Z,13.63
2016-07-05T02:31:00.348Z,13.7
2016-07-05T02:32:00.352Z,13.75
2016-07-05T02:33:01.689Z,13.73
2016-07-05T02:34:01.387Z,13.75
2016-07-05T02:35:01.546Z,13.84
2016-07-05T02:36:01.506Z,13.85
2016-07-05T02:37:01.234Z,13.91
2016-07-05T02:38:00.319Z,13.88
2016-07-05T02:39:00.319Z,13.87
2016-07-05T02:40:00.318Z,13.96
2016-07-05T02:41:00.403Z,14.07
2016-07-05T02:42:01.514Z,14.04
2016-07-05T02:43:04.045Z,14.09
2016-07-05T02:44:02.493Z,14.06
2016-07-05T02:45:00.310Z,14.14
2016-07-05T02:46:00.304Z,14.14
2016-07-05T02:47:00.289Z,14.14
2016-07-05T02:48:00.304Z,14.17
2016-07-05T02:49:00.291Z,14.18
2016-07-05T02:50:00.286Z,14.2
2016-07-05T02:51:00.289Z,14.2
2016-07-05T02:52:00.294Z,14.28
2016-07-05T02:53:00.290Z,14.28
2016-07-05T02:54:00.281Z,14.22
2016-07-05T02:55:00.279Z,14.27
2016-07-05T02:56:00.279Z,14.33
2016-07-05T02:57:00.260Z,14.33
2016-07-05T02:58:00.254Z,14.4
2016-07-05T02:59:00.251Z,14.4
2016-07-05T03:00:00.255Z,14.47
2016-07-05T03:01:00.253Z,14.46
2016-07-05T03:02:00.254Z,14.43
2016-07-05T03:03:00.260Z,14.43
2016-07-05T03:04:00.243Z,14.37
2016-07-05T03:05:00.251Z,14.51
2016-07-05T03:06:00.238Z,14.52
2016-07-05T03:07:00.238Z,14.61
2016-07-05T03:08:00.232Z,14.55
2016-07-05T03:09:00.236Z,14.52
2016-07-05T03:10:00.240Z,14.65
2016-07-05T03:11:00.231Z,14.57
2016-07-05T03:12:00.239Z,14.68
2016-07-05T03:13:00.285Z,14.58
2016-07-05T03:14:00.245Z,14.57
2016-07-05T03:15:00.222Z,14.7
2016-07-05T03:16:00.225Z,14.65
2016-07-05T03:17:00.216Z,14.64
2016-07-05T03:18:00.217Z,14.64
2016-07-05T03:19:00.199Z,14.62
2016-07-05T03:20:00.212Z,14.65
2016-07-05T03:21:00.205Z,14.65
2016-07-05T03:22:00.200Z,14.72
2016-07-05T03:23:00.205Z,14.7
2016-07-05T03:24:00.748Z,14.69
2016-07-05T03:25:00.644Z,14.69
2016-07-05T03:26:01.445Z,14.88
2016-07-05T03:28:00.535Z,14.81
2016-07-05T03:29:00.180Z,14.86
2016-07-05T03:30:00.173Z,14.84
2016-07-05T03:31:00.183Z,14.88
2016-07-05T03:32:00.179Z,14.94
2016-07-05T03:33:15.072Z,14.92
2016-07-05T03:34:01.375Z,14.92
2016-07-05T03:35:00.214Z,15.06
2016-07-05T03:36:00.884Z,15.1
2016-07-05T03:37:00.168Z,15.16
2016-07-05T03:38:00.166Z,15.16
2016-07-05T03:39:00.159Z,15.21
2016-07-05T03:40:00.161Z,15.27
2016-07-05T03:41:00.138Z,15.34
2016-07-05T03:42:00.145Z,15.28
2016-07-05T03:43:00.145Z,15.39
2016-07-05T03:44:00.146Z,15.35
2016-07-05T03:45:00.134Z,15.44
2016-07-05T03:46:00.132Z,15.43
2016-07-05T03:47:00.132Z,15.44
2016-07-05T03:48:00.143Z,15.5
2016-07-05T03:49:00.123Z,15.53
2016-07-05T03:50:00.132Z,15.53
2016-07-05T03:51:00.126Z,15.68
2016-07-05T03:52:03.454Z,15.67
2016-07-05T03:53:02.480Z,15.64
2016-07-05T03:54:00.231Z,15.68
2016-07-05T03:55:00.967Z,15.75
2016-07-05T03:56:00.457Z,15.76
2016-07-05T03:57:00.120Z,15.78
2016-07-05T03:58:00.119Z,15.8
2016-07-05T03:59:00.109Z,15.92
2016-07-05T04:00:00.108Z,15.92
2016-07-05T04:01:01.561Z,16
2016-07-05T04:02:01.518Z,15.96
2016-07-05T04:03:01.341Z,15.96
2016-07-05T04:04:00.110Z,15.97
2016-07-05T04:05:00.112Z,16.08
2016-07-05T04:06:00.115Z,16.09
2016-07-05T04:07:00.155Z,16.12
2016-07-05T04:08:00.101Z,16.17
2016-07-05T04:09:00.115Z,16.25
2016-07-05T04:10:00.102Z,16.28
2016-07-05T04:11:00.101Z,16.38
2016-07-05T04:12:00.087Z,16.52
2016-07-05T04:13:00.108Z,16.53
2016-07-05T04:14:00.078Z,16.68
2016-07-05T04:15:00.094Z,16.83
2016-07-05T04:16:00.096Z,17.01
2016-07-05T04:17:00.091Z,17.18
2016-07-05T04:18:00.094Z,17.18
2016-07-05T04:19:00.092Z,17.25
2016-07-05T04:20:00.104Z,17.36
2016-07-05T04:21:00.092Z,17.46
2016-07-05T04:22:00.073Z,17.52
2016-07-05T04:23:00.072Z,17.64
2016-07-05T04:24:00.066Z,17.75
2016-07-05T04:25:00.088Z,17.72
2016-07-05T04:26:00.088Z,17.89
2016-07-05T04:27:00.081Z,17.93
2016-07-05T04:28:00.087Z,17.99
2016-07-05T04:29:00.083Z,18.17
2016-07-05T04:30:00.083Z,18.21
2016-07-05T04:31:00.076Z,18.39
2016-07-05T04:32:00.082Z,18.55
2016-07-05T04:33:00.064Z,18.66
2016-07-05T04:34:00.090Z,18.81
2016-07-05T04:35:00.071Z,19.04
2016-07-05T04:36:00.069Z,19.31
2016-07-05T04:37:00.077Z,19.55
2016-07-05T04:38:00.091Z,19.76
2016-07-05T04:39:00.096Z,19.94
2016-07-05T04:40:00.078Z,20.06
2016-07-05T04:41:00.072Z,20.06
2016-07-05T04:42:00.081Z,20.28
2016-07-05T04:43:00.581Z,20.26
2016-07-05T04:44:00.148Z,20.29
2016-07-05T04:45:00.689Z,20.42
2016-07-05T04:46:14.985Z,20.67
2016-07-05T04:47:00.092Z,20.82
2016-07-05T04:48:00.098Z,21.1
2016-07-05T04:49:00.187Z,21.38
2016-07-05T04:50:00.095Z,21.62
2016-07-05T04:51:00.095Z,21.9
2016-07-05T04:52:00.253Z,22.27
2016-07-05T04:53:00.817Z,22.62
2016-07-05T04:54:00.112Z,23.07
2016-07-05T04:55:00.563Z,23.48
2016-07-05T04:56:15.023Z,24.05
2016-07-05T04:57:00.530Z,24.2
2016-07-05T04:58:00.137Z,24.68
2016-07-05T04:59:00.146Z,25.06
2016-07-05T05:00:00.152Z,25.33
2016-07-05T05:01:00.154Z,25.42
2016-07-05T05:02:00.159Z,25.52
2016-07-05T05:03:00.162Z,25.6
2016-07-05T05:04:00.169Z,25.7
2016-07-05T05:05:00.178Z,25.79
2016-07-05T05:06:00.191Z,25.83
2016-07-05T05:07:00.188Z,26.05
2016-07-05T05:08:00.192Z,26.07
2016-07-05T05:09:00.206Z,26.06
2016-07-05T05:10:00.676Z,26.1
2016-07-05T05:11:01.573Z,26.1
2016-07-05T05:12:02.034Z,26.1
2016-07-05T05:13:00.938Z,26.02
2016-07-05T05:14:01.590Z,26.02
2016-07-05T05:15:00.242Z,26.06
2016-07-05T05:16:00.540Z,26.13
2016-07-05T05:17:00.258Z,26.39
2016-07-05T05:18:00.274Z,26.54
2016-07-05T05:19:01.445Z,26.8
2016-07-05T05:21:00.339Z,27.09
2016-07-05T05:22:00.290Z,27.18
2016-07-05T05:23:01.233Z,27.09
2016-07-05T05:24:00.313Z,27.03
2016-07-05T05:25:00.335Z,26.81
2016-07-05T05:26:01.064Z,26.62
2016-07-05T05:27:00.348Z,26.62
2016-07-05T05:28:00.362Z,26.52
2016-07-05T05:29:00.363Z,26.37
2016-07-05T05:30:00.378Z,26.36
2016-07-05T05:31:00.382Z,26.26
2016-07-05T05:32:00.386Z,26.12
2016-07-05T05:33:00.388Z,26.06
2016-07-05T05:34:00.401Z,26.02
2016-07-05T05:35:00.413Z,25.88
2016-07-05T05:36:00.417Z,25.69
2016-07-05T05:37:00.426Z,25.5
2016-07-05T05:38:00.429Z,25.33
2016-07-05T05:39:00.426Z,25.21
2016-07-05T05:40:00.442Z,25.05
2016-07-05T05:41:00.458Z,24.93
2016-07-05T05:42:00.467Z,24.88
2016-07-05T05:43:00.476Z,24.73
2016-07-05T05:44:00.472Z,24.65
2016-07-05T05:45:00.477Z,24.47
2016-07-05T05:46:00.492Z,24.45
2016-07-05T05:47:00.488Z,24.39
2016-07-05T05:48:00.480Z,24.18
2016-07-05T05:49:00.510Z,24.15
2016-07-05T05:50:00.519Z,24.08
2016-07-05T05:51:00.518Z,24
2016-07-05T05:52:00.530Z,23.78
2016-07-05T05:53:00.532Z,23.65
2016-07-05T05:54:00.543Z,23.53
2016-07-05T05:55:00.548Z,23.51
2016-07-05T05:56:00.550Z,23.53
2016-07-05T05:57:00.563Z,23.54
2016-07-05T05:58:00.561Z,23.57
2016-07-05T05:59:00.565Z,23.79
2016-07-05T06:00:00.574Z,23.93
2016-07-05T06:01:02.533Z,24.16
2016-07-05T06:02:00.583Z,24.39
2016-07-05T06:03:00.742Z,24.47
2016-07-05T06:04:00.603Z,24.67
2016-07-05T06:05:00.950Z,24.71
2016-07-05T06:06:00.708Z,24.83
2016-07-05T06:07:00.616Z,24.88
2016-07-05T06:08:00.625Z,25
2016-07-05T06:09:00.632Z,25.13
2016-07-05T06:10:01.642Z,25.25
2016-07-05T06:11:02.047Z,25.18
2016-07-05T06:12:00.630Z,25.17
2016-07-05T06:13:00.656Z,25.13
2016-07-05T06:15:00.664Z,24.9
2016-07-05T06:16:00.656Z,24.87
2016-07-05T06:17:01.437Z,24.78
2016-07-05T06:18:00.685Z,24.8
2016-07-05T06:19:00.693Z,24.78
2016-07-05T06:20:00.699Z,24.81
2016-07-05T06:21:00.705Z,24.73
2016-07-05T06:22:00.695Z,24.68
2016-07-05T06:23:00.704Z,24.62
2016-07-05T06:24:00.732Z,24.57
2016-07-05T06:25:00.718Z,24.37
2016-07-05T06:26:00.726Z,24.28
2016-07-05T06:27:00.733Z,24.2
2016-07-05T06:28:02.235Z,24.12
2016-07-05T06:30:01.702Z,24.16
2016-07-05T06:31:01.949Z,24.18
2016-07-05T06:32:00.982Z,24.16
2016-07-05T06:33:00.775Z,24.21
2016-07-05T06:34:00.779Z,24.21
2016-07-05T06:35:00.785Z,24.28
2016-07-05T06:36:00.794Z,24.21
2016-07-05T06:37:04.724Z,24.18
2016-07-05T06:38:01.393Z,24.15
2016-07-05T06:39:02.294Z,24.2
2016-07-05T06:40:01.294Z,24.25
2016-07-05T06:41:00.943Z,24.3
2016-07-05T06:42:00.806Z,24.34
2016-07-05T06:43:01.355Z,24.4
2016-07-05T06:44:00.827Z,24.3
2016-07-05T06:45:00.855Z,24.31
2016-07-05T06:46:00.829Z,24.35
2016-07-05T06:47:00.838Z,24.31
2016-07-05T06:48:00.847Z,24.31
2016-07-05T06:49:00.842Z,24.24
2016-07-05T06:50:00.857Z,24.32
2016-07-05T06:51:00.864Z,24.37
2016-07-05T06:52:14.190Z,24.45
2016-07-05T06:53:00.876Z,24.53
2016-07-05T06:54:00.875Z,24.58
2016-07-05T06:55:00.870Z,24.61
2016-07-05T06:56:00.892Z,24.71
2016-07-05T06:57:00.889Z,24.85
2016-07-05T06:58:00.900Z,24.85
2016-07-05T06:59:00.903Z,24.96
2016-07-05T07:00:00.919Z,25.06
2016-07-05T07:01:00.927Z,25.15
2016-07-05T07:02:00.919Z,25.21
2016-07-05T07:03:00.944Z,25.36
2016-07-05T07:04:00.933Z,25.64
2016-07-05T07:05:00.950Z,25.65
2016-07-05T07:06:00.956Z,25.76
2016-07-05T07:07:00.962Z,25.9
2016-07-05T07:08:00.962Z,25.87
2016-07-05T07:09:00.975Z,26.05
2016-07-05T07:10:00.960Z,26.13
2016-07-05T07:11:00.976Z,26.09
2016-07-05T07:12:01.002Z,26.15
2016-07-05T07:13:00.990Z,26.35
2016-07-05T07:14:00.997Z,26.37
2016-07-05T07:15:01.004Z,26.54
2016-07-05T07:16:01.008Z,26.57
2016-07-05T07:17:01.039Z,26.7
2016-07-05T07:18:01.034Z,26.82
2016-07-05T07:19:01.907Z,26.92
2016-07-05T07:20:02.511Z,27.03
2016-07-05T07:21:01.452Z,27.25
2016-07-05T07:22:02.032Z,27.62
2016-07-05T07:23:01.080Z,28.12
2016-07-05T07:24:01.085Z,28.88
2016-07-05T07:25:01.088Z,29.41
2016-07-05T07:26:01.107Z,29.92
2016-07-05T07:27:01.120Z,30.43
2016-07-05T07:28:01.837Z,31.02
2016-07-05T07:29:02.096Z,31.51
2016-07-05T07:30:01.460Z,31.93
2016-07-05T07:31:02.017Z,32.37
2016-07-05T07:32:01.442Z,32.85
2016-07-05T07:33:01.561Z,33.18
2016-07-05T07:34:01.221Z,33.69
2016-07-05T07:35:01.224Z,34.05
2016-07-05T07:36:01.252Z,34.37
2016-07-05T07:37:01.277Z,34.52
2016-07-05T07:38:01.287Z,34.84
2016-07-05T07:39:01.315Z,35
2016-07-05T07:40:01.327Z,35.38
2016-07-05T07:41:01.339Z,35.47
2016-07-05T07:42:01.361Z,35.59
2016-07-05T07:43:01.385Z,35.89
2016-07-05T07:44:01.399Z,36.22
2016-07-05T07:45:01.417Z,36.34
2016-07-05T07:46:01.423Z,36.44
2016-07-05T07:47:01.933Z,36.62
2016-07-05T07:48:02.077Z,36.81
2016-07-05T07:49:03.297Z,36.99
2016-07-05T07:50:01.508Z,37.13
2016-07-05T07:51:01.525Z,37.32
2016-07-05T07:52:01.545Z,37.28
2016-07-05T07:53:01.570Z,37.31
2016-07-05T07:54:01.594Z,37.47
2016-07-05T07:55:01.604Z,37.69
2016-07-05T07:56:02.046Z,38.09
2016-07-05T07:57:02.636Z,38.47
2016-07-05T07:58:02.921Z,38.96
2016-07-05T07:59:01.685Z,39.4
2016-07-05T08:00:02.198Z,39.55
2016-07-05T08:01:01.764Z,39.66
2016-07-05T08:02:01.761Z,39.41
2016-07-05T08:03:01.776Z,39.18
2016-07-05T08:04:01.791Z,38.81
2016-07-05T08:05:01.816Z,38.61
2016-07-05T08:06:01.835Z,38.34
2016-07-05T08:07:01.850Z,38.2
2016-07-05T08:08:01.866Z,37.94
2016-07-05T08:09:01.887Z,37.74
2016-07-05T08:10:01.906Z,37.49
2016-07-05T08:11:01.937Z,37.36
2016-07-05T08:12:01.941Z,37.07
2016-07-05T08:13:01.952Z,36.81
2016-07-05T08:14:01.971Z,36.62
2016-07-05T08:15:01.988Z,36.56
2016-07-05T08:16:02.012Z,36.62
2016-07-05T08:17:02.030Z,36.69
2016-07-05T08:18:02.044Z,36.72
2016-07-05T08:19:02.066Z,36.65
2016-07-05T08:20:02.064Z,36.73
2016-07-05T08:21:02.107Z,36.78
2016-07-05T08:22:02.115Z,36.6
2016-07-05T08:23:02.141Z,36.43
2016-07-05T08:24:02.161Z,36.44
2016-07-05T08:25:02.179Z,36.49
2016-07-05T08:26:02.202Z,36.81
2016-07-05T08:27:02.215Z,37.02
2016-07-05T08:28:02.245Z,37.2
2016-07-05T08:29:02.256Z,37.39
2016-07-05T08:30:02.272Z,37.59
2016-07-05T08:31:02.298Z,37.91
2016-07-05T08:32:02.327Z,38.09
2016-07-05T08:33:02.949Z,37.96
2016-07-05T08:34:02.364Z,37.81
2016-07-05T08:35:02.387Z,37.4
2016-07-05T08:36:02.403Z,36.84
2016-07-05T08:37:02.421Z,36.31
2016-07-05T08:38:04.412Z,35.94
2016-07-05T08:39:03.507Z,35.84
2016-07-05T08:40:02.533Z,35.59
2016-07-05T08:41:03.045Z,35.48
2016-07-05T08:42:02.576Z,35.36
2016-07-05T08:43:02.542Z,35.36
2016-07-05T08:44:02.563Z,35.36
2016-07-05T08:45:02.581Z,35.38
2016-07-05T08:46:02.607Z,35.21
2016-07-05T08:47:03.252Z,35.02
2016-07-05T08:48:03.431Z,34.59
2016-07-05T08:49:02.650Z,34.06
2016-07-05T08:50:03.517Z,33.38
2016-07-05T08:51:02.688Z,32.77
2016-07-05T08:52:02.718Z,32.5
2016-07-05T08:53:02.711Z,32.03
2016-07-05T08:54:02.874Z,32
2016-07-05T08:55:02.747Z,31.73
2016-07-05T08:56:02.756Z,31.7
2016-07-05T08:57:02.789Z,31.53
2016-07-05T08:58:02.836Z,31.47
2016-07-05T08:59:02.815Z,31.28
2016-07-05T09:00:02.812Z,31.16
2016-07-05T09:01:02.838Z,31.02
2016-07-05T09:02:02.848Z,30.84
2016-07-05T09:03:02.861Z,30.65
2016-07-05T09:04:02.894Z,30.31
2016-07-05T09:06:03.535Z,29.7
2016-07-05T09:07:04.491Z,29.37
2016-07-05T09:08:03.800Z,29.06
2016-07-05T09:09:02.953Z,28.92
2016-07-05T09:10:02.948Z,28.81
2016-07-05T09:11:02.968Z,28.77
2016-07-05T09:12:02.972Z,28.83
2016-07-05T09:13:02.987Z,28.81
2016-07-05T09:14:04.137Z,28.78
2016-07-05T09:15:05.952Z,28.83
2016-07-05T09:16:03.936Z,28.95
2016-07-05T09:17:03.843Z,28.95
2016-07-05T09:18:03.065Z,29.15
2016-07-05T09:19:03.863Z,29.23
2016-07-05T09:20:03.899Z,29.28
2016-07-05T09:21:03.249Z,29.41
2016-07-05T09:22:03.071Z,29.52
2016-07-05T09:23:03.099Z,29.52
2016-07-05T09:24:03.108Z,29.64
2016-07-05T09:25:03.106Z,29.74
2016-07-05T09:26:03.125Z,29.85
2016-07-05T09:27:03.135Z,29.94
2016-07-05T09:28:03.146Z,29.92
2016-07-05T09:29:03.157Z,30
2016-07-05T09:30:03.169Z,30.07
2016-07-05T09:31:03.174Z,30
2016-07-05T09:32:03.181Z,29.9
2016-07-05T09:33:03.792Z,30.02
2016-07-05T09:34:03.225Z,30.16
2016-07-05T09:35:03.218Z,30.02
2016-07-05T09:36:03.225Z,30.1
2016-07-05T09:37:03.237Z,30.16
2016-07-05T09:38:03.259Z,30.15
2016-07-05T09:39:03.255Z,30.01
2016-07-05T09:40:03.256Z,29.97
2016-07-05T09:41:03.277Z,30.11
2016-07-05T09:42:03.282Z,29.97
2016-07-05T09:43:03.288Z,29.79
2016-07-05T09:44:03.301Z,29.73
2016-07-05T09:45:03.297Z,29.55
2016-07-05T09:46:03.322Z,29.3
2016-07-05T09:47:03.326Z,29.09
2016-07-05T09:48:03.321Z,28.89
2016-07-05T09:49:03.340Z,28.83
2016-07-05T09:50:03.337Z,28.71
2016-07-05T09:51:03.355Z,28.64
2016-07-05T09:52:03.376Z,28.61
2016-07-05T09:53:03.391Z,28.62
2016-07-05T09:54:03.394Z,28.67
2016-07-05T09:55:03.403Z,28.55
2016-07-05T09:56:03.773Z,28.56
2016-07-05T09:57:04.231Z,28.58
2016-07-05T09:58:18.824Z,28.62
2016-07-05T09:59:03.770Z,28.66
2016-07-05T10:00:03.435Z,28.66
2016-07-05T10:01:03.462Z,28.71
2016-07-05T10:02:03.998Z,28.85
2016-07-05T10:03:03.463Z,28.8
2016-07-05T10:04:03.482Z,28.78
2016-07-05T10:05:03.697Z,28.95
2016-07-05T10:06:04.896Z,28.95
2016-07-05T10:07:04.192Z,29.23
2016-07-05T10:08:04.414Z,29.34
2016-07-05T10:09:03.629Z,29.45
2016-07-05T10:10:03.920Z,29.55
2016-07-05T10:11:03.724Z,29.58
2016-07-05T10:12:03.539Z,29.64
2016-07-05T10:13:03.563Z,29.71
2016-07-05T10:14:03.572Z,29.79
2016-07-05T10:15:03.574Z,29.95
2016-07-05T10:16:03.585Z,29.97
2016-07-05T10:17:03.595Z,29.97
2016-07-05T10:18:03.607Z,30.15
2016-07-05T10:20:03.617Z,30.11
2016-07-05T10:21:03.624Z,30.04
2016-07-05T10:22:03.642Z,30.01
2016-07-05T10:24:04.483Z,30.05
2016-07-05T10:25:06.515Z,30.29
2016-07-05T10:26:03.687Z,30.38
2016-07-05T10:27:03.781Z,30.43
2016-07-05T10:28:03.703Z,30.39
2016-07-05T10:29:03.704Z,30.45
2016-07-05T10:30:03.710Z,30.42
2016-07-05T10:31:03.724Z,30.37
2016-07-05T10:32:05.232Z,30.37
2016-07-05T10:34:05.675Z,30.47
2016-07-05T10:35:03.779Z,30.49
2016-07-05T10:36:04.171Z,30.51
2016-07-05T10:37:03.785Z,30.61
2016-07-05T10:38:04.636Z,30.51
2016-07-05T10:39:03.801Z,30.47
2016-07-05T10:47:05.377Z,30.94
2016-07-05T10:48:03.882Z,30.8
2016-07-05T10:49:03.894Z,30.76
2016-07-05T10:50:03.911Z,30.7
2016-07-05T10:51:03.915Z,30.73
2016-07-05T10:52:03.922Z,30.75
2016-07-05T10:53:03.937Z,30.72
2016-07-05T10:54:03.944Z,30.89
2016-07-05T10:55:03.951Z,31.12
2016-07-05T10:57:03.968Z,31.21
2016-07-05T10:58:03.986Z,31.16
2016-07-05T10:59:03.992Z,31.2
2016-07-05T11:00:03.997Z,31.32
2016-07-05T11:01:04.003Z,31.44
2016-07-05T11:02:04.014Z,31.54
2016-07-05T11:03:04.018Z,31.63
2016-07-05T11:04:04.030Z,31.76
2016-07-05T11:05:04.059Z,31.72
2016-07-05T11:06:04.058Z,31.76
2016-07-05T11:07:04.065Z,31.73
2016-07-05T11:08:04.081Z,31.72
2016-07-05T11:09:04.085Z,31.75
2016-07-05T11:10:04.101Z,31.66
2016-07-05T11:11:04.108Z,31.7
2016-07-05T11:12:04.116Z,31.76
2016-07-05T11:13:04.130Z,31.91
2016-07-05T11:15:19.088Z,32.14
2016-07-05T11:16:04.309Z,32.06
2016-07-05T11:18:04.176Z,31.89
2016-07-05T11:19:05.285Z,31.7
2016-07-05T11:20:04.196Z,31.7
2016-07-05T11:21:04.201Z,31.66
2016-07-05T11:22:04.211Z,31.65
2016-07-05T11:23:05.722Z,31.66
2016-07-05T11:24:05.048Z,31.7
2016-07-05T11:25:04.991Z,31.66
2016-07-05T11:26:04.651Z,31.63
2016-07-05T11:27:04.765Z,31.36
2016-07-05T11:28:04.267Z,31.36
2016-07-05T11:29:04.268Z,31.23
2016-07-05T11:30:04.295Z,31.2
2016-07-05T11:31:04.403Z,31.04
2016-07-05T11:32:04.317Z,31.01
2016-07-05T11:33:04.326Z,30.91
2016-07-05T11:34:04.330Z,30.88
2016-07-05T11:35:04.351Z,30.79
2016-07-05T11:36:04.357Z,30.73
2016-07-05T11:37:04.368Z,30.65
2016-07-05T11:38:04.358Z,30.65
2016-07-05T11:39:04.383Z,30.7
2016-07-05T11:40:04.390Z,30.86
2016-07-05T11:41:04.405Z,30.91
2016-07-05T11:42:05.086Z,30.91
2016-07-05T11:43:04.818Z,30.92
2016-07-05T11:44:04.439Z,30.91
2016-07-05T11:45:04.491Z,30.91
2016-07-05T11:46:04.455Z,30.75
2016-07-05T11:47:04.469Z,30.6
2016-07-05T11:48:04.474Z,30.61
2016-07-05T11:49:04.500Z,30.7
2016-07-05T11:50:04.496Z,30.77
2016-07-05T11:52:07.488Z,30.95
2016-07-05T11:53:04.522Z,30.97
2016-07-05T11:54:04.857Z,30.99
2016-07-05T11:55:05.283Z,31.01
2016-07-05T11:56:05.187Z,30.98
2016-07-05T11:57:04.565Z,31.01
2016-07-05T11:58:04.570Z,30.88
2016-07-05T11:59:04.584Z,30.79
2016-07-05T12:00:04.594Z,30.76
2016-07-05T12:01:04.603Z,30.76
2016-07-05T12:02:04.590Z,30.86
2016-07-05T12:03:04.611Z,30.7
2016-07-05T12:04:04.633Z,30.7
2016-07-05T12:05:05.239Z,30.75
2016-07-05T12:06:04.646Z,30.76
2016-07-05T12:07:04.656Z,30.73
2016-07-05T12:08:04.675Z,30.84
2016-07-05T12:09:04.678Z,30.82
2016-07-05T12:10:04.682Z,30.84
2016-07-05T12:11:04.694Z,30.89
2016-07-05T12:12:04.706Z,30.86
2016-07-05T12:13:04.715Z,30.94
2016-07-05T12:14:04.727Z,30.84
2016-07-05T12:15:04.738Z,30.75
2016-07-05T12:16:04.739Z,30.64
2016-07-05T12:17:04.737Z,30.61
2016-07-05T12:18:04.768Z,30.51
2016-07-05T12:19:04.773Z,30.39
2016-07-05T12:20:04.780Z,30.32
2016-07-05T12:21:04.779Z,30.22
2016-07-05T12:22:04.795Z,30.11
2016-07-05T12:23:04.805Z,30.26
2016-07-05T12:24:04.813Z,30.15
2016-07-05T12:25:04.827Z,30.17
2016-07-05T12:26:04.839Z,30.1
2016-07-05T12:27:04.845Z,30.05
2016-07-05T12:28:04.847Z,30.05
2016-07-05T12:29:04.847Z,30.07
2016-07-05T12:30:04.861Z,30.04
2016-07-05T12:31:04.868Z,29.9
2016-07-05T12:32:19.780Z,30.04
2016-07-05T12:33:06.790Z,29.92
2016-07-05T12:34:05.440Z,29.95
2016-07-05T12:35:05.106Z,29.82
2016-07-05T12:36:05.260Z,29.82
2016-07-05T12:37:05.317Z,29.83
2016-07-05T12:38:05.531Z,29.74
2016-07-05T12:39:04.926Z,29.68
2016-07-05T12:40:04.945Z,29.73
2016-07-05T12:41:04.944Z,29.71
2016-07-05T12:42:06.169Z,29.53
2016-07-05T12:43:06.082Z,29.43
2016-07-05T12:44:05.493Z,29.39
2016-07-05T12:45:05.543Z,29.46
2016-07-05T12:46:05.012Z,29.48
2016-07-05T12:47:05.017Z,29.6
2016-07-05T12:48:05.023Z,29.61
2016-07-05T12:49:05.042Z,29.73
2016-07-05T12:50:05.040Z,29.82
2016-07-05T12:51:05.053Z,29.95
2016-07-05T12:52:05.060Z,30.15
2016-07-05T12:53:05.072Z,30.26
2016-07-05T12:54:05.074Z,30.47
2016-07-05T12:55:05.085Z,30.61
2016-07-05T12:56:05.093Z,30.76
2016-07-05T12:57:05.115Z,30.75
2016-07-05T12:58:05.105Z,30.77
2016-07-05T12:59:05.118Z,30.84
2016-07-05T13:00:06.625Z,30.89
2016-07-05T13:01:06.648Z,30.97
2016-07-05T13:02:06.681Z,30.98
2016-07-05T13:03:05.632Z,31.02
2016-07-05T13:04:06.367Z,31.19
2016-07-05T13:05:05.164Z,31.34
2016-07-05T13:06:05.427Z,31.46
2016-07-05T13:07:05.176Z,31.47
2016-07-05T13:08:05.186Z,31.69
2016-07-05T13:11:06.085Z,31.7
2016-07-05T13:12:05.719Z,31.69
2016-07-05T13:13:05.229Z,31.8
2016-07-05T13:14:05.235Z,31.86
2016-07-05T13:15:05.260Z,31.99
2016-07-05T13:16:05.271Z,32
2016-07-05T13:17:05.290Z,31.96